KTHA/THA METAR and TAF weather

Enter ICAO airport designator
Station Type Date Time Source
KTHA METAR 2019/02/16 06:55 UTC NOAA

KTHA 160655Z AUTO 33012KT 4SM BR BKN005 OVC009 05/04 A2976 RMK A01 P0008


Station Type Date Time Source
KTHA Decoded METAR 2019/02/16 06:55 UTC NOAA

Station name not available
Feb 16, 2019 - 01:55 AM EST / 2019.02.16 0655 UTC
Wind: from the NNW (330 degrees) at 14 MPH (12 KT):0
Visibility: 4 mile(s):0
Sky conditions: overcast
Weather: mist
Precipitation last hour: 0.08 inches
Temperature: 41 F (5 C)
Dew Point: 39 F (4 C)
Relative Humidity: 93%
Pressure (altimeter): 29.76 in. Hg (1007 hPa)
ob: KTHA 160655Z AUTO 33012KT 4SM BR BKN005 OVC009 05/04 A2976 RMK A01 P0008
cycle: 7

Station Type Date Time Source
KTHA TAF UTC NOAA

Error!


Example: see airport list